createdAt,value
2023-03-29T04:06:32.552Z,5.05
2023-03-29T04:09:18.734Z,5.10
2023-03-29T04:11:53.215Z,5.45
2023-03-29T04:14:21.594Z,5.03
2023-03-29T04:17:06.539Z,4.70
2023-03-29T04:19:47.066Z,4.32
2023-03-29T04:22:14.644Z,5.00
2023-03-29T04:24:43.126Z,4.30
2023-03-29T04:27:29.636Z,4.75
2023-03-29T04:29:58.717Z,5.00
2023-03-29T04:32:46.207Z,4.65
2023-03-29T04:35:13.678Z,4.20
2023-03-29T04:37:41.979Z,3.67
2023-03-29T04:40:14.527Z,3.85
2023-03-29T04:42:54.463Z,3.97
2023-03-29T04:45:22.151Z,3.58
2023-03-29T04:48:06.049Z,3.70
2023-03-29T04:50:36.517Z,3.88
2023-03-29T04:53:04.244Z,3.90
2023-03-29T04:55:32.200Z,3.85
2023-03-29T04:58:02.739Z,4.03
2023-03-29T05:00:33.330Z,4.45
2023-03-29T05:03:04.523Z,4.00
2023-03-29T05:05:35.366Z,3.95
2023-03-29T05:08:04.697Z,4.18
2023-03-29T05:10:43.512Z,3.97
2023-03-29T05:13:12.329Z,4.00
2023-03-29T05:15:42.087Z,4.07
2023-03-29T05:18:10.729Z,3.72
2023-03-29T05:20:40.555Z,4.57
2023-03-29T05:23:09.746Z,5.03
2023-03-29T05:26:08.093Z,6.50
2023-03-29T05:28:36.613Z,6.63
2023-03-29T05:31:06.031Z,7.50
2023-03-29T05:33:36.560Z,8.47
2023-03-29T05:36:08.631Z,8.45
2023-03-29T05:38:41.394Z,7.32
2023-03-29T05:41:08.974Z,8.32
2023-03-29T05:43:54.563Z,7.28
2023-03-29T05:46:25.353Z,7.70
2023-03-29T05:48:55.482Z,6.07
2023-03-29T05:51:33.400Z,6.65
2023-03-29T05:54:01.526Z,6.30
2023-03-29T05:56:29.214Z,5.78
2023-03-29T05:58:57.023Z,6.60
2023-03-29T06:01:25.894Z,7.03
2023-03-29T06:04:01.748Z,7.35
2023-03-29T06:06:37.931Z,7.35
2023-03-29T06:09:05.433Z,7.65
2023-03-29T06:11:56.436Z,6.80
2023-03-29T06:14:37.357Z,7.05
2023-03-29T06:17:19.063Z,6.53
2023-03-29T06:19:47.646Z,5.90
2023-03-29T06:22:17.109Z,5.60
2023-03-29T06:24:44.890Z,5.75
2023-03-29T06:27:23.496Z,5.60
2023-03-29T06:29:51.625Z,5.43
2023-03-29T06:32:19.944Z,5.72
2023-03-29T06:34:56.552Z,5.70
2023-03-29T06:37:40.639Z,5.82
2023-03-29T06:40:21.450Z,6.07
2023-03-29T06:42:49.276Z,6.10
2023-03-29T06:45:38.651Z,6.03
2023-03-29T06:48:12.562Z,5.88
2023-03-29T06:50:41.974Z,6.22
2023-03-29T06:53:15.746Z,6.65
2023-03-29T06:55:45.871Z,7.40
2023-03-29T06:58:31.800Z,8.00
2023-03-29T07:01:07.046Z,7.00
2023-03-29T07:03:55.664Z,6.60
2023-03-29T07:06:31.353Z,6.35
2023-03-29T07:09:01.810Z,6.25
2023-03-29T07:11:59.781Z,6.03
2023-03-29T07:14:30.045Z,6.47
2023-03-29T07:16:58.602Z,6.13
2023-03-29T07:19:34.166Z,5.93
2023-03-29T07:22:08.186Z,5.10
2023-03-29T07:24:45.753Z,5.50
2023-03-29T07:27:13.405Z,4.95
2023-03-29T07:29:40.864Z,4.00
2023-03-29T07:32:08.818Z,4.18
2023-03-29T07:34:42.476Z,4.10
2023-03-29T07:37:16.384Z,5.25
2023-03-29T07:39:45.880Z,5.38
2023-03-29T07:42:30.430Z,4.57
2023-03-29T07:44:59.911Z,5.05
2023-03-29T07:47:33.541Z,4.65
2023-03-29T07:50:02.234Z,4.57
2023-03-29T07:52:30.358Z,4.95
2023-03-29T07:54:59.055Z,5.25
2023-03-29T07:57:44.559Z,6.32
2023-03-29T08:00:16.985Z,4.20
2023-03-29T08:02:54.941Z,4.10
2023-03-29T08:05:37.887Z,3.58
2023-03-29T08:08:12.416Z,3.30
2023-03-29T08:10:57.352Z,3.55
2023-03-29T08:13:43.881Z,3.30
2023-03-29T08:16:26.910Z,3.33
2023-03-29T08:19:05.039Z,2.20
2023-03-29T08:22:02.756Z,2.17
2023-03-29T08:24:43.267Z,2.45
2023-03-29T08:27:11.281Z,2.30
2023-03-29T08:29:38.843Z,2.70
2023-03-29T08:32:07.071Z,2.80
2023-03-29T08:34:35.603Z,3.10
2023-03-29T08:37:18.418Z,2.40
2023-03-29T08:39:48.919Z,2.83
2023-03-29T08:43:02.029Z,2.75
2023-03-29T08:46:01.681Z,2.63
2023-03-29T08:49:05.513Z,2.35
2023-03-29T08:51:40.741Z,2.63
2023-03-29T08:54:12.803Z,2.40
2023-03-29T08:57:17.061Z,2.25
2023-03-29T08:59:52.369Z,2.10
2023-03-29T09:02:27.338Z,2.55
2023-03-29T09:05:18.551Z,2.10
2023-03-29T09:07:56.124Z,1.60
2023-03-29T09:10:42.420Z,1.70
2023-03-29T09:13:49.525Z,1.95
2023-03-29T09:16:26.595Z,1.80
2023-03-29T09:19:22.521Z,2.13
2023-03-29T09:21:50.662Z,1.88
2023-03-29T09:24:44.449Z,1.60
2023-03-29T09:27:32.399Z,1.50
2023-03-29T09:30:19.267Z,1.65
2023-03-29T09:32:57.448Z,1.55
2023-03-29T09:36:03.207Z,1.67
2023-03-29T09:38:33.120Z,1.52
2023-03-29T09:41:21.590Z,1.85
2023-03-29T09:43:52.260Z,2.33
2023-03-29T09:46:36.372Z,2.15
2023-03-29T09:49:10.300Z,1.90
2023-03-29T09:51:39.205Z,1.80
2023-03-29T09:54:06.879Z,1.75
2023-03-29T09:56:49.963Z,2.65
2023-03-29T09:59:21.283Z,1.75
2023-03-29T10:01:48.846Z,1.83
2023-03-29T10:04:17.548Z,1.60
2023-03-29T10:06:52.640Z,1.80
2023-03-29T10:09:23.005Z,1.70
2023-03-29T10:11:57.150Z,1.60
2023-03-29T10:14:31.021Z,2.07
2023-03-29T10:16:59.135Z,1.92
2023-03-29T10:19:34.455Z,1.98
2023-03-29T10:22:05.579Z,1.90
2023-03-29T10:24:33.581Z,1.75
2023-03-29T10:27:04.552Z,1.70
2023-03-29T10:29:38.911Z,2.05
2023-03-29T10:32:16.435Z,2.03
2023-03-29T10:34:46.891Z,1.80
2023-03-29T10:37:19.327Z,1.90
2023-03-29T10:39:48.835Z,1.50
2023-03-29T10:42:18.996Z,1.42
2023-03-29T10:44:55.389Z,1.90
2023-03-29T10:47:23.561Z,1.95
2023-03-29T10:49:57.272Z,1.63
2023-03-29T10:52:26.159Z,1.70
2023-03-29T10:54:56.289Z,2.03
2023-03-29T10:57:45.671Z,2.20
2023-03-29T11:00:34.284Z,2.17
2023-03-29T11:03:29.396Z,2.00
2023-03-29T11:06:12.727Z,2.25
2023-03-29T11:09:01.639Z,2.20
2023-03-29T11:11:44.485Z,2.30
2023-03-29T11:14:41.364Z,1.83
2023-03-29T11:17:28.951Z,1.67
2023-03-29T11:20:08.541Z,2.20
2023-03-29T11:22:45.137Z,2.40
2023-03-29T11:25:34.682Z,2.45
2023-03-29T11:28:19.753Z,2.33
2023-03-29T11:31:12.358Z,1.90
2023-03-29T11:34:15.674Z,2.08
2023-03-29T11:36:55.473Z,2.03
2023-03-29T11:40:00.313Z,2.10
2023-03-29T11:42:32.218Z,1.90
2023-03-29T11:45:02.477Z,2.40
2023-03-29T11:47:36.589Z,2.20
2023-03-29T11:50:23.118Z,1.95
2023-03-29T11:52:59.226Z,2.88
2023-03-29T11:55:39.293Z,2.80
2023-03-29T11:58:22.413Z,3.17
2023-03-29T12:01:16.389Z,2.97
2023-03-29T12:03:53.262Z,2.03
2023-03-29T12:06:38.410Z,2.00
2023-03-29T12:09:14.216Z,2.13
2023-03-29T12:11:52.851Z,2.08
2023-03-29T12:15:01.506Z,2.17
2023-03-29T12:17:38.944Z,2.55
2023-03-29T12:20:26.760Z,2.03
2023-03-29T12:22:56.144Z,2.17
2023-03-29T12:25:41.242Z,2.30
2023-03-29T12:28:23.949Z,2.67
2023-03-29T12:31:04.444Z,2.53
2023-03-29T12:33:43.926Z,2.65
2023-03-29T12:36:36.315Z,2.17
2023-03-29T12:39:29.190Z,1.90
2023-03-29T12:42:21.712Z,2.10
2023-03-29T12:45:32.557Z,2.05
2023-03-29T12:48:01.353Z,2.33
2023-03-29T12:50:28.973Z,2.70
2023-03-29T12:53:23.476Z,2.20
2023-03-29T12:56:03.036Z,2.00
2023-03-29T12:58:40.266Z,2.22
2023-03-29T13:01:24.735Z,2.20
2023-03-29T13:04:01.499Z,2.97
2023-03-29T13:06:56.217Z,2.75
2023-03-29T13:09:29.910Z,2.70
2023-03-29T13:12:05.100Z,2.50
2023-03-29T13:14:37.404Z,2.30
2023-03-29T13:17:18.308Z,2.20
2023-03-29T13:20:15.668Z,2.20
2023-03-29T13:23:20.626Z,2.60
2023-03-29T13:26:16.891Z,2.53
2023-03-29T13:29:05.276Z,2.95
2023-03-29T13:31:52.252Z,2.75
2023-03-29T13:34:25.589Z,3.10
2023-03-29T13:37:01.525Z,2.95
2023-03-29T13:39:31.931Z,2.85
2023-03-29T13:42:35.315Z,2.78
2023-03-29T13:45:17.321Z,2.85
2023-03-29T13:47:54.877Z,2.40
2023-03-29T13:50:39.360Z,2.85
2023-03-29T13:53:15.606Z,3.03
2023-03-29T13:55:51.637Z,2.92
2023-03-29T13:58:52.416Z,2.17
2023-03-29T14:01:23.212Z,2.90
2023-03-29T14:03:52.872Z,2.55
2023-03-29T14:06:33.632Z,2.50
2023-03-29T14:09:06.411Z,2.83
2023-03-29T14:11:34.471Z,2.50
2023-03-29T14:14:08.512Z,1.90
2023-03-29T14:16:39.667Z,2.15
2023-03-29T14:19:17.452Z,2.00
2023-03-29T14:21:45.485Z,2.28
2023-03-29T14:24:26.030Z,2.13
2023-03-29T14:26:55.167Z,2.40
2023-03-29T14:29:25.392Z,1.70
2023-03-29T14:31:53.077Z,2.63
2023-03-29T14:34:20.653Z,2.10
2023-03-29T14:36:49.384Z,2.25
2023-03-29T14:39:20.404Z,2.10
2023-03-29T14:41:53.234Z,2.63
2023-03-29T14:44:24.625Z,2.22
2023-03-29T14:46:52.400Z,2.10
2023-03-29T14:49:22.931Z,2.42
2023-03-29T14:51:52.212Z,2.10
2023-03-29T14:54:27.553Z,2.15
2023-03-29T14:56:55.888Z,2.50
2023-03-29T14:59:28.125Z,2.72
2023-03-29T15:01:56.505Z,2.50
2023-03-29T15:04:24.622Z,1.65
2023-03-29T15:06:52.879Z,2.00
2023-03-29T15:09:27.056Z,2.17
2023-03-29T15:11:57.318Z,2.17
2023-03-29T15:14:28.392Z,1.93
2023-03-29T15:17:02.152Z,2.28
2023-03-29T15:19:29.539Z,1.77
2023-03-29T15:21:58.405Z,2.20
2023-03-29T15:24:31.580Z,1.95
2023-03-29T15:27:14.629Z,2.10
2023-03-29T15:29:43.261Z,2.13
2023-03-29T15:32:23.290Z,2.22
2023-03-29T15:35:01.988Z,2.17
2023-03-29T15:37:29.444Z,2.28
2023-03-29T15:39:57.482Z,2.08
2023-03-29T15:42:25.662Z,2.03
2023-03-29T15:44:56.634Z,2.33
2023-03-29T15:47:24.413Z,2.70
2023-03-29T15:49:51.834Z,2.25
2023-03-29T15:52:19.855Z,2.60
2023-03-29T15:54:47.183Z,2.30
2023-03-29T15:57:16.198Z,1.98
2023-03-29T15:59:44.757Z,2.55
2023-03-29T16:02:16.743Z,2.13
2023-03-29T16:04:44.616Z,1.70
2023-03-29T16:07:14.900Z,2.67
2023-03-29T16:09:42.910Z,2.42
2023-03-29T16:12:10.536Z,2.42
2023-03-29T16:14:38.437Z,2.17
2023-03-29T16:17:06.265Z,2.47
2023-03-29T16:19:33.849Z,3.28
2023-03-29T16:22:05.080Z,4.32
2023-03-29T16:24:34.963Z,2.30
2023-03-29T16:27:03.802Z,3.80
2023-03-29T16:29:32.080Z,4.07
2023-03-29T16:31:59.878Z,2.72
2023-03-29T16:34:28.313Z,2.13
2023-03-29T16:36:56.125Z,2.38
2023-03-29T16:39:23.607Z,2.35
2023-03-29T16:41:51.395Z,2.42
2023-03-29T16:44:23.858Z,1.77
2023-03-29T16:46:57.816Z,2.05
2023-03-29T16:49:25.670Z,2.22
2023-03-29T16:51:53.149Z,2.60
2023-03-29T16:54:20.654Z,2.63
2023-03-29T16:56:48.257Z,2.28
2023-03-29T16:59:15.661Z,2.22
2023-03-29T17:01:43.170Z,1.90
2023-03-29T17:04:11.557Z,1.75
2023-03-29T17:06:38.953Z,1.80
2023-03-29T17:09:07.324Z,1.75
2023-03-29T17:11:35.997Z,1.80
2023-03-29T17:14:04.026Z,2.00
2023-03-29T17:16:32.270Z,2.10
2023-03-29T17:19:00.505Z,2.20
2023-03-29T17:21:29.633Z,1.90
2023-03-29T17:23:57.068Z,1.95
2023-03-29T17:26:24.418Z,1.50
2023-03-29T17:28:52.259Z,2.50
2023-03-29T17:31:19.922Z,2.20
2023-03-29T17:33:47.645Z,2.13
2023-03-29T17:36:15.815Z,2.72
2023-03-29T17:38:43.322Z,2.58
2023-03-29T17:41:11.378Z,2.47
2023-03-29T17:43:39.117Z,2.30
2023-03-29T17:46:06.844Z,2.42
2023-03-29T17:48:35.071Z,1.83
2023-03-29T17:51:02.562Z,1.80
2023-03-29T17:53:30.029Z,2.08
2023-03-29T17:55:57.469Z,2.25
2023-03-29T17:58:24.875Z,2.22
2023-03-29T18:00:52.236Z,2.22
2023-03-29T18:03:19.800Z,2.25
2023-03-29T18:05:48.200Z,1.75
2023-03-29T18:08:16.852Z,2.22
2023-03-29T18:10:44.358Z,2.63
2023-03-29T18:13:13.978Z,2.08
2023-03-29T18:15:42.438Z,2.20
2023-03-29T18:18:11.210Z,2.20
2023-03-29T18:20:39.164Z,2.65
2023-03-29T18:23:06.655Z,2.55
2023-03-29T18:25:34.613Z,2.47
2023-03-29T18:28:02.008Z,2.55
2023-03-29T18:30:30.529Z,10.25
2023-03-29T18:32:58.951Z,10.88
2023-03-29T18:35:27.339Z,7.85
2023-03-29T18:37:55.061Z,3.03
2023-03-29T18:40:26.232Z,6.28
2023-03-29T18:42:53.772Z,5.97
2023-03-29T18:45:22.221Z,10.65
2023-03-29T18:47:50.685Z,7.63
2023-03-29T18:50:18.850Z,2.80
2023-03-29T18:52:46.218Z,3.00
2023-03-29T18:55:13.992Z,4.68
2023-03-29T18:57:41.794Z,8.30
2023-03-29T19:00:12.342Z,5.28
2023-03-29T19:02:40.777Z,3.60
2023-03-29T19:05:10.840Z,3.60
2023-03-29T19:07:38.834Z,7.40
2023-03-29T19:10:08.367Z,4.78
2023-03-29T19:12:36.356Z,4.22
2023-03-29T19:15:04.091Z,10.82
2023-03-29T19:17:31.659Z,15.15
2023-03-29T19:19:59.440Z,15.43
2023-03-29T19:22:26.820Z,9.43
2023-03-29T19:24:54.708Z,3.67
2023-03-29T19:27:22.375Z,3.55
2023-03-29T19:29:49.810Z,3.65
2023-03-29T19:32:17.688Z,3.15
2023-03-29T19:34:45.055Z,3.10
2023-03-29T19:37:13.072Z,3.13
2023-03-29T19:39:41.466Z,3.03
2023-03-29T19:42:09.360Z,2.88
2023-03-29T19:44:38.326Z,3.05
2023-03-29T19:47:06.042Z,2.58
2023-03-29T19:49:39.429Z,2.42
2023-03-29T19:52:07.656Z,3.45
2023-03-29T19:54:35.306Z,4.50
2023-03-29T19:57:04.089Z,3.42
2023-03-29T19:59:32.526Z,3.80
2023-03-29T20:02:02.208Z,3.72
2023-03-29T20:04:29.689Z,3.70
2023-03-29T20:06:57.671Z,3.72
2023-03-29T20:09:25.304Z,3.30
2023-03-29T20:11:53.708Z,3.53
2023-03-29T20:14:21.644Z,3.17
2023-03-29T20:16:50.615Z,3.58
2023-03-29T20:19:18.809Z,3.10
2023-03-29T20:21:46.197Z,3.50
2023-03-29T20:24:13.511Z,3.20
2023-03-29T20:26:41.072Z,3.20
2023-03-29T20:29:08.899Z,3.10
2023-03-29T20:31:36.402Z,3.47
2023-03-29T20:34:03.929Z,3.10
2023-03-29T20:36:31.986Z,3.33
2023-03-29T20:39:00.267Z,3.92
2023-03-29T20:41:28.143Z,3.53
2023-03-29T20:43:59.892Z,3.03
2023-03-29T20:46:33.285Z,3.30
2023-03-29T20:49:03.389Z,3.63
2023-03-29T20:51:32.101Z,2.72
2023-03-29T20:54:04.717Z,3.28
2023-03-29T20:56:34.842Z,3.60
2023-03-29T20:59:03.996Z,2.83
2023-03-29T21:01:32.512Z,3.00
2023-03-29T21:04:00.015Z,3.22
2023-03-29T21:06:27.515Z,2.92
2023-03-29T21:08:54.881Z,3.08
2023-03-29T21:11:22.230Z,3.88
2023-03-29T21:13:50.272Z,3.65
2023-03-29T21:16:18.407Z,4.07
2023-03-29T21:18:45.975Z,3.67
2023-03-29T21:21:13.725Z,3.60
2023-03-29T21:23:41.243Z,3.60
2023-03-29T21:26:08.742Z,3.25
2023-03-29T21:28:37.588Z,4.30
2023-03-29T21:31:06.156Z,4.60
2023-03-29T21:33:35.165Z,4.30
2023-03-29T21:36:02.743Z,4.18
2023-03-29T21:38:30.702Z,4.82
2023-03-29T21:41:00.279Z,4.65
2023-03-29T21:43:28.873Z,4.50
2023-03-29T21:45:57.659Z,4.35
2023-03-29T21:48:25.119Z,4.38
2023-03-29T21:50:52.956Z,4.18
2023-03-29T21:53:20.390Z,4.85
2023-03-29T21:55:52.317Z,4.00
2023-03-29T21:58:20.255Z,4.80
2023-03-29T22:00:48.137Z,4.97
2023-03-29T22:03:17.060Z,4.40
2023-03-29T22:05:58.906Z,4.88
2023-03-29T22:08:26.820Z,5.85
2023-03-29T22:10:56.848Z,5.30
2023-03-29T22:13:27.021Z,5.45
2023-03-29T22:16:01.025Z,5.35
2023-03-29T22:18:43.555Z,4.38
2023-03-29T22:21:15.936Z,4.97
2023-03-29T22:23:46.375Z,4.28
2023-03-29T22:26:16.183Z,5.18
2023-03-29T22:28:43.616Z,5.40
2023-03-29T22:31:14.278Z,5.93
2023-03-29T22:33:42.219Z,5.55
2023-03-29T22:36:27.982Z,5.28
2023-03-29T22:38:56.521Z,5.05
2023-03-29T22:41:26.057Z,5.32
2023-03-29T22:43:55.990Z,4.38
2023-03-29T22:46:24.515Z,4.80
2023-03-29T22:48:52.456Z,4.53
2023-03-29T22:51:20.376Z,4.40
2023-03-29T22:53:47.789Z,5.13
2023-03-29T22:56:16.563Z,4.47
2023-03-29T22:58:44.448Z,4.82
2023-03-29T23:01:12.934Z,4.45
2023-03-29T23:03:41.016Z,5.47
2023-03-29T23:06:08.418Z,6.00
2023-03-29T23:08:36.300Z,6.03
2023-03-29T23:11:04.536Z,5.60
2023-03-29T23:13:33.641Z,5.97
2023-03-29T23:16:03.665Z,5.80
2023-03-29T23:18:34.915Z,6.40
2023-03-29T23:21:05.596Z,5.63
2023-03-29T23:23:33.915Z,5.45
2023-03-29T23:26:01.973Z,5.60
2023-03-29T23:28:34.544Z,5.65
2023-03-29T23:31:06.998Z,5.68
2023-03-29T23:33:36.340Z,5.38
2023-03-29T23:36:06.123Z,5.57
2023-03-29T23:38:36.179Z,6.47
2023-03-29T23:41:06.515Z,5.32
2023-03-29T23:43:37.307Z,5.95
2023-03-29T23:46:07.098Z,5.47
2023-03-29T23:48:34.845Z,5.80
2023-03-29T23:51:03.184Z,5.72
2023-03-29T23:53:32.114Z,5.55
2023-03-29T23:56:01.651Z,5.22
2023-03-29T23:58:31.223Z,6.40
